»·PEaware :: BOE561 KJAC-KAPA

BOE561 :: KJAC-KAPA

FLIGHT INFORMATION

Flight Status: Arrived
Operator:
Boeing Commercial Airplane Group
More flights by this operator :: More flights under this callsign
Pilot: Ben F. (2808)
Aircraft: BOEING 737-200
(B732)
More flights by this aircraft type
Origin: KJAC Jackson Hole
United States
Destination: KAPA Centennial
United States
More flights between these airports :: More routes between these airports
Route: ALPIN2 KICNE OCS J163 CHE TOMSN7
File this flight plan on PilotEdge
Remarks:
Altitude:
(Current/Filed)
29,000ft
Speed:
(Current/Filed)
446kts
Departed: 29-Sep-18 02:41 PM
Arrived: 29-Sep-18 03:44 PM
Distance/Time
Traveled:
358nm/1:03
Distance/Time
To Go:
Arrived

Flight Plot

Page will automatically refresh every two minutes.

Flight plan parsing failed; only flown route is shown


Map Options




Map Legend


Flown Route
Filed Route
Departure Airport
Arrival Airport
Navaid (VOR, NDB)
Fix

Horizontal Profiles

Position Reports

Time Latitude Longitude Heading Altitude Ground
Speed
29-Sep-18 14:28 43.603090 -110.737248 107 6460ft 0kts
29-Sep-18 14:29 43.603090 -110.737248 107 6460ft 0kts
29-Sep-18 14:30 43.603090 -110.737248 107 6460ft 0kts
29-Sep-18 14:31 43.603090 -110.737248 107 6460ft 0kts
29-Sep-18 14:32 43.603090 -110.737248 107 6460ft 0kts
29-Sep-18 14:33 43.603090 -110.737248 107 6460ft 0kts
29-Sep-18 14:34 43.603106 -110.737319 107 6460ft 2kts
29-Sep-18 14:35 43.603191 -110.738041 64 6460ft 2kts
29-Sep-18 14:36 43.602999 -110.738271 19 6460ft 0kts
29-Sep-18 14:37 43.602999 -110.738271 19 6460ft 0kts
29-Sep-18 14:38 43.603918 -110.737814 19 6460ft 18kts
29-Sep-18 14:39 43.608517 -110.735588 18 6460ft 17kts
29-Sep-18 14:40 43.613602 -110.733141 20 6460ft 18kts
29-Sep-18 14:41 43.614926 -110.732662 336 6460ft 0kts
29-Sep-18 14:42 43.614595 -110.734229 198 6460ft 11kts
29-Sep-18 14:43 43.585978 -110.749381 211 6987ft 160kts
29-Sep-18 14:44 43.543937 -110.778659 209 8624ft 197kts
29-Sep-18 14:45 43.489381 -110.815159 209 10592ft 239kts
29-Sep-18 14:46 43.421562 -110.859418 208 12020ft 298kts
29-Sep-18 14:47 43.343075 -110.910081 208 14015ft 323kts
29-Sep-18 14:48 43.260293 -110.963389 206 15917ft 340kts
29-Sep-18 14:49 43.169589 -110.924713 145 17667ft 384kts
29-Sep-18 14:50 43.087842 -110.825805 143 19153ft 399kts
29-Sep-18 14:51 43.005266 -110.723187 143 20622ft 406kts
29-Sep-18 14:52 42.921336 -110.618993 143 22038ft 410kts
29-Sep-18 14:53 42.838065 -110.515977 143 23211ft 415kts
29-Sep-18 14:54 42.752217 -110.410166 143 24189ft 422kts
29-Sep-18 14:55 42.666501 -110.304926 144 25056ft 427kts
29-Sep-18 14:56 42.577777 -110.196436 144 25803ft 433kts
29-Sep-18 14:57 42.488228 -110.087372 144 26478ft 437kts
29-Sep-18 14:58 42.397249 -109.977013 144 27086ft 442kts
29-Sep-18 14:59 42.305888 -109.866644 144 27622ft 446kts
29-Sep-18 15:00 42.213001 -109.754881 144 28119ft 449kts
29-Sep-18 15:01 42.119666 -109.643030 144 28660ft 450kts
29-Sep-18 15:02 42.025715 -109.530930 145 29073ft 454kts
29-Sep-18 15:03 41.930554 -109.417875 144 29057ft 466kts
29-Sep-18 15:04 41.838026 -109.308354 145 29046ft 472kts
29-Sep-18 15:05 41.741873 -109.195010 145 29047ft 474kts
29-Sep-18 15:06 41.643642 -109.079745 144 29047ft 475kts
29-Sep-18 15:07 41.551417 -108.952409 134 29048ft 483kts
29-Sep-18 15:08 41.466396 -108.813765 134 29049ft 485kts
29-Sep-18 15:09 41.381268 -108.674888 134 29050ft 485kts
29-Sep-18 15:10 41.296029 -108.536418 134 29051ft 486kts
29-Sep-18 15:11 41.210271 -108.397859 134 29051ft 487kts
29-Sep-18 15:12 41.129468 -108.267927 134 29041ft 487kts
29-Sep-18 15:13 41.043676 -108.130595 134 29049ft 486kts
29-Sep-18 15:14 40.957759 -107.993659 134 29069ft 484kts
29-Sep-18 15:15 40.875876 -107.863660 134 29075ft 479kts
29-Sep-18 15:16 40.793115 -107.732898 134 29076ft 476kts
29-Sep-18 15:17 40.708382 -107.599598 134 29078ft 475kts
29-Sep-18 15:18 40.623691 -107.466933 134 29083ft 477kts
29-Sep-18 15:19 40.541948 -107.334899 123 29077ft 485kts
29-Sep-18 15:20 40.521986 -107.161244 92 29100ft 496kts
29-Sep-18 15:21 40.521706 -106.980977 91 29101ft 497kts
29-Sep-18 15:22 40.522028 -106.803731 90 29099ft 498kts
29-Sep-18 15:23 40.522162 -106.623072 90 29103ft 497kts
29-Sep-18 15:24 40.522157 -106.471749 90 29111ft 497kts
29-Sep-18 15:25 40.521968 -106.273332 91 26850ft 471kts
29-Sep-18 15:26 40.521547 -106.108008 91 24647ft 444kts
29-Sep-18 15:27 40.520915 -105.949902 91 22326ft 428kts
29-Sep-18 15:28 40.520084 -105.796070 91 20783ft 418kts
29-Sep-18 15:29 40.515901 -105.670706 108 19633ft 409kts
29-Sep-18 15:30 40.438117 -105.540826 138 17877ft 375kts
29-Sep-18 15:31 40.379044 -105.465481 140 17106ft 339kts
29-Sep-18 15:32 40.305261 -105.364295 137 15356ft 325kts
29-Sep-18 15:33 40.254590 -105.295728 138 13787ft 325kts
29-Sep-18 15:34 40.194289 -105.214099 138 12833ft 298kts
29-Sep-18 15:35 40.136951 -105.136469 138 11084ft 302kts
29-Sep-18 15:36 40.077665 -105.059622 137 9386ft 297kts
29-Sep-18 15:37 40.019775 -104.988338 138 8005ft 276kts
29-Sep-18 15:38 39.959662 -104.939628 157 8007ft 249kts
29-Sep-18 15:39 39.899570 -104.904659 156 8015ft 251kts
29-Sep-18 15:40 39.836345 -104.868492 156 8012ft 259kts
29-Sep-18 15:41 39.767245 -104.859231 183 7991ft 243kts
29-Sep-18 15:42 39.704998 -104.857969 175 7573ft 210kts
29-Sep-18 15:43 39.653934 -104.854289 180 7142ft 161kts
29-Sep-18 15:44 39.608471 -104.852710 177 6413ft 162kts
29-Sep-18 15:45 39.567987 -104.850752 176 5891ft 70kts
29-Sep-18 15:46 39.565898 -104.849218 357 5891ft 8kts
29-Sep-18 15:47 39.569292 -104.849375 357 5891ft 15kts
29-Sep-18 15:48 39.573856 -104.849537 20 5891ft 6kts
29-Sep-18 15:49 39.572946 -104.845871 110 5891ft 16kts
29-Sep-18 15:50 39.571350 -104.840461 112 5891ft 15kts
29-Sep-18 15:51 39.571966 -104.837633 359 5891ft 12kts
29-Sep-18 15:52 39.573780 -104.839501 339 5891ft 2kts
29-Sep-18 15:53 39.574408 -104.839486 1 5891ft 0kts

Navigation Log

Ident Type
Flight plan parsing failed, navigation log unavailable